Hauptseite
METAR-TAF:

METAR-TAF

Flughäfen :

Flughafen Bolschoje Sawino

Perm, Russland

Breite: 58-00N, Länge: 056-15E, Höhe: 170 m

Beobachtung

Neuester Wetterbericht von vor 30 Minuten, um 08:00 UTC
Wind 12 kt aus Südwest
Temperatur 20°C
Luftfeuchtigkeit 28%
Luftdruck 1028 hPa
Sichtweite 10 km oder mehr
keine Wolken unter 1500 m und keine Kumulonimbus oder Gewitterwolken

METAR: USPP 140800Z 23006MPS CAVOK 20/01 Q1028 R21/090060 NOSIG RMK QFE760

Zeit: 13:30 (08:30 UTC)

Prognose

Neuester Wetterbericht von vor 3 Stunden und 35 Minuten, um 04:55 UTC
Gültige Prognose vom 14 um 06 UTC bis 15 um 06 UTC
Wind 6 kt aus Südwest, Böen bis zu 25 kt
Sichtweite 10 km oder mehr
keine Wolken unter 1500 m und keine Kumulonimbus oder Gewitterwolken

TAF: USPP 140455Z 1406/1506 22003G13MPS CAVOK

Wetterbeobachtungen und Prognosen von mehr als 4000 Flughäfen (METAR und TAF Bericht).

Die verfügbaren Stationen werden durch gelbe und rote Markierungen auf der Karte dargestellt.

Führen Sie die Maus auf sie, um den Namen der Station zu sehen.

Darauf klicken, um die Beobachtung von Wetterbeobachtungen und Prognosen zu sehen.

Um die Karte zu ändern : klicken Sie auf den grünen Tasten mit einem schwarzen Kreuz Zum Vergrößern, auf den grünen Button mit einem Gedankenstrich zu verkleinern, oder auf die grünen Pfeile für benachbarte Karten.


METAR-TAF: